Search for airport 
image banner adimage banner ad
image banner ad

FZIC - Kisangani Bangoka

Located in , Congo, the Democratic Republic of the

ICAO - FZIC, IATA - FKI

Data provided by Airmate  

General information

Coordinates: N0°28'54" E25°20'17"
Elevation is 1417 feet MSL.
 
Rated:
View ratings: [VIEW]


View others Airports in Orientale

Operational data

Open for public use
Current time UTC:
Current local time:
Weather
TAF: TAF FZIC 061700Z 0618/0724 00000KT 6000 NSC BECMG 0623/0701 0500 FG OVC003 FM 070700 09006KT 7000 SCT014 BECMG 0709/0712 BKN020 FEW034CB TEMPO 0714/0716 TS BECMG 0716/0718 NSC
View NOTAMs / SUP AIP / TFR affecting this airport [VIEW]
Communications frequencies: [VIEW]

Runways:

RWY identifierQFULength (ft)Width (ft)SurfaceLDA (ft)
13127°11483148ASP
31307°11483148

Airport contact information

Address: Congo, the Democratic Republic of the

Satellite view of FZIC